createdAt,value
2022-09-14T00:01:28.516Z,97559.13
2022-09-14T00:03:58.023Z,97560.09
2022-09-14T00:06:24.682Z,97559.34
2022-09-14T00:08:53.116Z,97559.44
2022-09-14T00:11:21.431Z,97563.84
2022-09-14T00:13:48.673Z,97563.84
2022-09-14T00:16:24.947Z,97562.81
2022-09-14T00:18:52.848Z,97557.59
2022-09-14T00:21:19.681Z,97555.72
2022-09-14T00:23:46.603Z,97536.56
2022-09-14T00:26:16.538Z,97527.06
2022-09-14T00:28:51.928Z,97522.56
2022-09-14T00:31:19.963Z,97512.06
2022-09-14T00:33:48.052Z,97507.97
2022-09-14T00:36:23.020Z,97503.72
2022-09-14T00:38:49.987Z,97502.88
2022-09-14T00:41:19.456Z,97507.97
2022-09-14T00:44:19.913Z,97512.97
2022-09-14T00:46:48.545Z,97509.44
2022-09-14T00:49:23.674Z,97513.19
2022-09-14T00:52:05.301Z,97510.91
2022-09-14T00:54:31.823Z,97509.66
2022-09-14T00:57:00.586Z,97509.88
2022-09-14T00:59:30.920Z,97511.66
2022-09-14T01:01:57.428Z,97514.44
2022-09-14T01:04:24.162Z,97520.59
2022-09-14T01:07:38.805Z,97501.53
2022-09-14T01:10:42.856Z,97502.50
2022-09-14T01:13:33.226Z,97498.81
2022-09-14T01:16:12.837Z,97485.50
2022-09-14T01:18:47.454Z,97474.75
2022-09-14T01:21:20.462Z,97454.75
2022-09-14T01:23:59.375Z,97449.09
2022-09-14T01:27:01.151Z,97447.13
2022-09-14T01:29:48.902Z,97451.50
2022-09-14T01:32:28.556Z,97438.09
2022-09-14T01:35:05.046Z,97442.66
2022-09-14T01:37:47.534Z,97441.94
2022-09-14T01:40:22.754Z,97438.63
2022-09-14T01:42:55.233Z,97432.56
2022-09-14T01:45:24.250Z,97442.16
2022-09-14T01:47:55.595Z,97448.09
2022-09-14T01:50:38.625Z,97446.44
2022-09-14T01:53:16.705Z,97449.03
2022-09-14T01:55:55.443Z,97455.69
2022-09-14T01:58:31.531Z,97455.69
2022-09-14T02:01:01.921Z,97461.41
2022-09-14T02:03:47.873Z,97457.13
2022-09-14T02:06:40.479Z,97461.75
2022-09-14T02:09:11.264Z,97452.78
2022-09-14T02:11:38.585Z,97452.56
2022-09-14T02:14:05.770Z,97451.78
2022-09-14T02:16:32.632Z,97450.31
2022-09-14T02:19:01.527Z,97446.56
2022-09-14T02:21:30.848Z,97441.56
2022-09-14T02:24:01.052Z,97449.59
2022-09-14T02:26:29.018Z,97446.13
2022-09-14T02:28:56.457Z,97436.56
2022-09-14T02:31:36.216Z,97434.59
2022-09-14T02:34:11.802Z,97433.22
2022-09-14T02:36:47.186Z,97433.97
2022-09-14T02:39:26.721Z,97427.41
2022-09-14T02:42:07.743Z,97416.03
2022-09-14T02:44:34.063Z,97408.22
2022-09-14T02:47:22.090Z,97407.31
2022-09-14T02:50:12.874Z,97388.47
2022-09-14T02:52:49.687Z,97387.59
2022-09-14T02:55:19.891Z,97376.38
2022-09-14T02:58:04.631Z,97372.09
2022-09-14T03:00:33.795Z,97367.00
2022-09-14T03:03:00.448Z,97365.53
2022-09-14T03:05:26.897Z,97359.50
2022-09-14T03:07:53.628Z,97354.31
2022-09-14T03:10:20.532Z,97354.41
2022-09-14T03:12:47.047Z,97358.91
2022-09-14T03:15:13.617Z,97362.44
2022-09-14T03:17:40.041Z,97365.16
2022-09-14T03:20:07.023Z,97372.84
2022-09-14T03:22:33.760Z,97389.50
2022-09-14T03:25:00.268Z,97409.28
2022-09-14T03:27:26.884Z,97421.03
2022-09-14T03:29:56.401Z,97436.56
2022-09-14T03:32:23.040Z,97444.88
2022-09-14T03:34:55.744Z,97451.66
2022-09-14T03:37:22.235Z,97457.47
2022-09-14T03:39:48.759Z,97460.09
2022-09-14T03:42:15.216Z,97458.41
2022-09-14T03:44:41.600Z,97461.31
2022-09-14T03:47:08.781Z,97460.09
2022-09-14T03:49:35.584Z,97462.16
2022-09-14T03:52:02.308Z,97444.69
2022-09-14T03:54:31.677Z,97429.06
2022-09-14T03:56:58.212Z,97428.25
2022-09-14T03:59:24.777Z,97423.22
2022-09-14T04:06:25.108Z,97406.28
2022-09-14T04:08:51.959Z,97398.47
2022-09-14T04:11:23.896Z,97393.78
2022-09-14T04:13:51.318Z,97385.03
2022-09-14T04:16:20.872Z,97375.97
2022-09-14T04:18:47.937Z,97368.72
2022-09-14T04:21:18.440Z,97358.41
2022-09-14T04:24:19.290Z,97388.81
2022-09-14T04:26:32.694Z,97400.03
2022-09-14T04:28:59.749Z,97403.03
2022-09-14T04:31:26.458Z,97400.53
2022-09-14T04:33:56.344Z,97391.81
2022-09-14T04:36:39.795Z,97393.47
2022-09-14T04:39:07.138Z,97376.84
2022-09-14T04:41:35.948Z,97379.50
2022-09-14T04:44:02.407Z,97371.91
2022-09-14T04:46:31.326Z,97380.47
2022-09-14T04:48:58.444Z,97386.19
2022-09-14T04:51:28.507Z,97371.72
2022-09-14T04:53:56.622Z,97350.19
2022-09-14T04:56:46.400Z,97344.47
2022-09-14T04:59:13.487Z,97357.66
2022-09-14T05:01:42.267Z,97367.03
2022-09-14T05:04:09.973Z,97378.06
2022-09-14T05:06:39.238Z,97378.28
2022-09-14T05:09:10.072Z,97366.44
2022-09-14T05:11:37.620Z,97351.75
2022-09-14T05:14:04.505Z,97347.91
2022-09-14T05:16:40.060Z,97352.38
2022-09-14T05:19:09.337Z,97354.66
2022-09-14T05:21:40.385Z,97359.03
2022-09-14T05:24:12.524Z,97352.78
2022-09-14T05:26:38.956Z,97351.97
2022-09-14T05:29:05.507Z,97354.66
2022-09-14T05:31:32.774Z,97353.50
2022-09-14T05:33:59.517Z,97353.44
2022-09-14T05:36:26.444Z,97343.09
2022-09-14T05:38:52.970Z,97334.38
2022-09-14T05:41:19.395Z,97320.66
2022-09-14T05:43:46.235Z,97315.66
2022-09-14T05:46:15.288Z,97313.38
2022-09-14T05:48:42.287Z,97311.72
2022-09-14T05:51:14.481Z,97301.31
2022-09-14T05:53:42.934Z,97305.88
2022-09-14T05:56:11.762Z,97299.41
2022-09-14T05:58:39.975Z,97289.88
2022-09-14T06:01:07.255Z,97295.25
2022-09-14T06:03:33.744Z,97297.13
2022-09-14T06:06:00.163Z,97291.94
2022-09-14T06:08:26.957Z,97281.63
2022-09-14T06:10:53.360Z,97275.28
2022-09-14T06:13:19.838Z,97268.41
2022-09-14T06:15:46.243Z,97265.94
2022-09-14T06:18:12.678Z,97269.78
2022-09-14T06:20:39.100Z,97270.31
2022-09-14T06:23:05.533Z,97272.06
2022-09-14T06:25:32.036Z,97258.03
2022-09-14T06:27:58.516Z,97257.91
2022-09-14T06:30:25.076Z,97265.59
2022-09-14T06:32:51.479Z,97265.50
2022-09-14T06:35:17.889Z,97258.84
2022-09-14T06:37:44.267Z,97263.63
2022-09-14T06:40:11.019Z,97248.84
2022-09-14T06:42:37.540Z,97251.25
2022-09-14T06:45:04.385Z,97251.75
2022-09-14T06:47:34.382Z,97251.66
2022-09-14T06:50:01.023Z,97248.19
2022-09-14T06:52:31.702Z,97257.91
2022-09-14T06:55:00.080Z,97263.59
2022-09-14T06:57:26.512Z,97261.50
2022-09-14T06:59:52.985Z,97259.25
2022-09-14T07:02:19.722Z,97267.03
2022-09-14T07:04:46.218Z,97257.75
2022-09-14T07:07:15.351Z,97266.69
2022-09-14T07:09:41.815Z,97271.69
2022-09-14T07:12:09.655Z,97265.09
2022-09-14T07:14:36.818Z,97265.59
2022-09-14T07:17:03.329Z,97269.63
2022-09-14T07:19:29.922Z,97273.94
2022-09-14T07:21:56.513Z,97277.25
2022-09-14T07:24:22.924Z,97275.41
2022-09-14T07:26:49.501Z,97274.75
2022-09-14T07:29:18.988Z,97259.78
2022-09-14T07:31:48.190Z,97267.84
2022-09-14T07:34:15.632Z,97274.66
2022-09-14T07:36:42.720Z,97271.41
2022-09-14T07:39:12.365Z,97275.59
2022-09-14T07:41:39.631Z,97267.38
2022-09-14T07:44:07.844Z,97270.66
2022-09-14T07:46:40.577Z,97276.41
2022-09-14T07:49:08.359Z,97271.72
2022-09-14T07:51:36.712Z,97267.13
2022-09-14T07:54:04.679Z,97279.53
2022-09-14T07:56:31.190Z,97278.47
2022-09-14T07:59:17.234Z,97287.13
2022-09-14T08:01:46.810Z,97275.66
2022-09-14T08:04:13.526Z,97281.59
2022-09-14T08:06:40.595Z,97275.72
2022-09-14T08:09:08.561Z,97294.06
2022-09-14T08:11:35.972Z,97299.53
2022-09-14T08:14:10.110Z,97289.00
2022-09-14T08:16:38.548Z,97292.13
2022-09-14T08:19:10.805Z,97298.94
2022-09-14T08:21:37.314Z,97291.47
2022-09-14T08:24:04.333Z,97287.81
2022-09-14T08:26:31.936Z,97283.19
2022-09-14T08:29:02.932Z,97281.19
2022-09-14T08:31:29.606Z,97287.84
2022-09-14T08:34:01.272Z,97279.81
2022-09-14T08:36:31.319Z,97285.41
2022-09-14T08:38:57.767Z,97285.19
2022-09-14T08:41:43.897Z,97289.69
2022-09-14T08:44:25.921Z,97289.16
2022-09-14T08:47:03.196Z,97286.91
2022-09-14T08:49:51.786Z,97283.72
2022-09-14T08:52:24.979Z,97270.16
2022-09-14T08:54:58.529Z,97277.50
2022-09-14T08:57:53.579Z,97280.75
2022-09-14T09:00:27.355Z,97284.56
2022-09-14T09:03:12.589Z,97290.22
2022-09-14T09:05:51.692Z,97292.41
2022-09-14T09:08:39.559Z,97289.91
2022-09-14T09:11:14.994Z,97292.25
2022-09-14T09:13:43.919Z,97308.16
2022-09-14T09:16:13.051Z,97301.91
2022-09-14T09:18:55.237Z,97299.03
2022-09-14T09:21:36.486Z,97287.88
2022-09-14T09:24:34.185Z,97307.94
2022-09-14T09:27:13.033Z,97302.47
2022-09-14T09:29:40.094Z,97304.16
2022-09-14T09:32:20.311Z,97306.88
2022-09-14T09:34:46.902Z,97320.88
2022-09-14T09:37:20.389Z,97331.78
2022-09-14T09:39:47.100Z,97329.88
2022-09-14T09:42:28.322Z,97331.28
2022-09-14T09:45:03.185Z,97321.81
2022-09-14T09:47:40.294Z,97330.59
2022-09-14T09:50:19.476Z,97334.88
2022-09-14T09:52:54.354Z,97340.34
2022-09-14T09:55:23.566Z,97343.63
2022-09-14T09:57:50.057Z,97345.44
2022-09-14T10:00:24.496Z,97349.91
2022-09-14T10:02:51.709Z,97351.00
2022-09-14T10:05:19.902Z,97354.91
2022-09-14T10:07:49.151Z,97353.59
2022-09-14T10:10:18.442Z,97356.44
2022-09-14T10:12:54.134Z,97360.84
2022-09-14T10:15:41.558Z,97356.09
2022-09-14T10:18:10.987Z,97347.22
2022-09-14T10:20:41.944Z,97344.13
2022-09-14T10:23:19.845Z,97344.81
2022-09-14T10:25:49.086Z,97338.41
2022-09-14T10:28:36.443Z,97333.78
2022-09-14T10:31:16.979Z,97323.09
2022-09-14T10:33:44.100Z,97320.59
2022-09-14T10:36:21.824Z,97313.50
2022-09-14T10:38:58.572Z,97322.41
2022-09-14T10:41:35.487Z,97329.63
2022-09-14T10:44:02.324Z,97328.31
2022-09-14T10:46:42.947Z,97331.06
2022-09-14T10:49:38.002Z,97329.88
2022-09-14T10:52:25.492Z,97322.34
2022-09-14T10:55:09.923Z,97317.00
2022-09-14T10:57:43.288Z,97312.63
2022-09-14T11:00:14.560Z,97306.66
2022-09-14T11:03:03.006Z,97315.50
2022-09-14T11:06:08.397Z,97315.25
2022-09-14T11:09:03.233Z,97306.78
2022-09-14T11:11:49.853Z,97303.44
2022-09-14T11:14:37.409Z,97292.31
2022-09-14T11:17:27.636Z,97287.41
2022-09-14T11:20:30.990Z,97287.88
2022-09-14T11:23:22.265Z,97283.72
2022-09-14T11:26:00.177Z,97290.84
2022-09-14T11:28:38.740Z,97295.31
2022-09-14T11:31:26.396Z,97290.53
2022-09-14T11:33:58.746Z,97296.16
2022-09-14T11:36:30.794Z,97288.59
2022-09-14T11:39:07.069Z,97284.78
2022-09-14T11:41:54.876Z,97291.22
2022-09-14T11:44:38.515Z,97293.44
2022-09-14T11:47:22.185Z,97290.00
2022-09-14T11:50:15.521Z,97278.44
2022-09-14T11:52:42.040Z,97275.69
2022-09-14T11:55:11.762Z,97265.97
2022-09-14T11:57:38.361Z,97270.81
2022-09-14T12:00:30.475Z,97257.50
2022-09-14T12:03:17.130Z,97252.00
2022-09-14T12:05:44.959Z,97252.34
2022-09-14T12:08:31.986Z,97258.66
2022-09-14T12:11:09.936Z,97258.88
2022-09-14T12:13:37.152Z,97256.84
2022-09-14T12:16:08.590Z,97257.84
2022-09-14T12:18:39.971Z,97260.59
2022-09-14T12:21:20.504Z,97257.59
2022-09-14T12:23:52.151Z,97258.84
2022-09-14T12:26:18.553Z,97255.91
2022-09-14T12:28:48.501Z,97259.38
2022-09-14T12:31:59.530Z,97262.53
2022-09-14T12:34:32.174Z,97260.19
2022-09-14T12:37:29.657Z,97260.34
2022-09-14T12:40:36.630Z,97253.13
2022-09-14T12:43:35.606Z,97268.97
2022-09-14T12:46:21.626Z,97271.63
2022-09-14T12:48:53.129Z,97260.06
2022-09-14T12:51:31.731Z,97264.88
2022-09-14T12:53:58.107Z,97265.34
2022-09-14T12:56:44.936Z,97280.72
2022-09-14T12:59:23.526Z,97274.25
2022-09-14T13:02:25.078Z,97270.19
2022-09-14T13:04:57.972Z,97265.56
2022-09-14T13:07:33.182Z,97271.22
2022-09-14T13:10:03.640Z,97267.25
2022-09-14T13:12:41.751Z,97262.72
2022-09-14T13:15:19.036Z,97252.41
2022-09-14T13:18:01.513Z,97260.53
2022-09-14T13:20:30.016Z,97254.59
2022-09-14T13:22:56.565Z,97255.56
2022-09-14T13:25:28.992Z,97254.59
2022-09-14T13:27:56.585Z,97254.31
2022-09-14T13:30:26.607Z,97248.81
2022-09-14T13:32:55.616Z,97240.97
2022-09-14T13:35:43.940Z,97243.16
2022-09-14T13:38:18.196Z,97250.44
2022-09-14T13:40:45.857Z,97237.22
2022-09-14T13:43:12.856Z,97234.44
2022-09-14T13:45:40.325Z,97234.88
2022-09-14T13:48:06.917Z,97222.56
2022-09-14T13:50:33.996Z,97220.00
2022-09-14T13:53:03.083Z,97216.94
2022-09-14T13:55:33.490Z,97207.00
2022-09-14T13:58:11.792Z,97193.84
2022-09-14T14:00:59.330Z,97194.13
2022-09-14T14:03:34.938Z,97178.63
2022-09-14T14:06:17.705Z,97189.38
2022-09-14T14:08:44.366Z,97195.38
2022-09-14T14:11:11.053Z,97193.19
2022-09-14T14:13:38.321Z,97199.41
2022-09-14T14:16:17.311Z,97188.34
2022-09-14T14:18:56.723Z,97187.16
2022-09-14T14:21:23.230Z,97190.88
2022-09-14T14:24:12.274Z,97188.00
2022-09-14T14:26:47.725Z,97178.06
2022-09-14T14:29:16.292Z,97166.63
2022-09-14T14:31:42.784Z,97164.94
2022-09-14T14:34:25.629Z,97158.59
2022-09-14T14:36:52.111Z,97157.38
2022-09-14T14:39:20.602Z,97162.63
2022-09-14T14:41:48.781Z,97153.38
2022-09-14T14:44:28.204Z,97147.56
2022-09-14T14:46:56.249Z,97164.50
2022-09-14T14:49:23.686Z,97181.66
2022-09-14T14:51:50.475Z,97199.16
2022-09-14T14:54:18.641Z,97197.63
2022-09-14T14:56:47.162Z,97220.31
2022-09-14T14:59:26.653Z,97249.91
2022-09-14T15:01:53.977Z,97236.41
2022-09-14T15:04:20.501Z,97224.22
2022-09-14T15:06:47.612Z,97193.63
2022-09-14T15:09:17.541Z,97206.59
2022-09-14T15:11:44.392Z,97148.59
2022-09-14T15:14:15.949Z,97149.19
2022-09-14T15:16:44.878Z,97160.47
2022-09-14T15:19:11.452Z,97167.28
2022-09-14T15:21:38.872Z,97161.72
2022-09-14T15:24:05.921Z,97165.34
2022-09-14T15:26:33.304Z,97172.84
2022-09-14T15:28:59.715Z,97170.59
2022-09-14T15:31:26.227Z,97175.38
2022-09-14T15:33:52.863Z,97171.22
2022-09-14T15:36:43.862Z,97175.16
2022-09-14T15:39:13.678Z,97175.97
2022-09-14T15:41:40.954Z,97175.88
2022-09-14T15:44:08.186Z,97181.19
2022-09-14T15:46:35.235Z,97173.72
2022-09-14T15:49:07.666Z,97167.13
2022-09-14T15:51:34.912Z,97169.00
2022-09-14T15:54:01.592Z,97165.69
2022-09-14T15:56:28.169Z,97172.56
2022-09-14T15:58:58.870Z,97172.13
2022-09-14T16:01:25.589Z,97173.91
2022-09-14T16:04:03.597Z,97153.59
2022-09-14T16:06:30.797Z,97147.69
2022-09-14T16:09:00.923Z,97142.47
2022-09-14T16:11:27.302Z,97135.69
2022-09-14T16:13:53.966Z,97134.75
2022-09-14T16:16:21.386Z,97134.97
2022-09-14T16:18:50.087Z,97146.72
2022-09-14T16:21:21.960Z,97153.47
2022-09-14T16:23:51.535Z,97148.38
2022-09-14T16:26:30.366Z,97156.91
2022-09-14T16:28:56.947Z,97162.84
2022-09-14T16:31:26.765Z,97156.06
2022-09-14T16:33:55.645Z,97141.97
2022-09-14T16:36:27.742Z,97140.28
2022-09-14T16:38:59.445Z,97134.13
2022-09-14T16:41:27.382Z,97138.16
2022-09-14T16:43:55.980Z,97130.44
2022-09-14T16:46:23.413Z,97126.75
2022-09-14T16:48:50.292Z,97117.63
2022-09-14T16:51:19.379Z,97110.16
2022-09-14T16:53:46.932Z,97107.13
2022-09-14T16:56:16.295Z,97108.66
2022-09-14T16:58:44.086Z,97099.41
2022-09-14T17:01:16.434Z,97112.00
2022-09-14T17:03:44.794Z,97115.66
2022-09-14T17:06:14.221Z,97123.16
2022-09-14T17:08:43.799Z,97128.25
2022-09-14T17:11:11.982Z,97121.19
2022-09-14T17:13:38.601Z,97118.69
2022-09-14T17:16:13.554Z,97127.84
2022-09-14T17:18:41.747Z,97127.72
2022-09-14T17:21:14.334Z,97131.63
2022-09-14T17:23:41.831Z,97135.31
2022-09-14T17:26:11.437Z,97121.44
2022-09-14T17:28:38.995Z,97124.28
2022-09-14T17:31:07.430Z,97134.38
2022-09-14T17:33:35.630Z,97133.56
2022-09-14T17:36:04.061Z,97142.56
2022-09-14T17:38:33.863Z,97147.19
2022-09-14T17:41:04.861Z,97155.13
2022-09-14T17:43:32.553Z,97149.16
2022-09-14T17:45:59.586Z,97151.69
2022-09-14T17:48:27.746Z,97159.81
2022-09-14T17:50:55.168Z,97153.91
2022-09-14T17:53:22.495Z,97150.56
2022-09-14T17:55:48.972Z,97157.47
2022-09-14T17:58:19.607Z,97158.53
2022-09-14T18:00:46.406Z,97157.59
2022-09-14T18:03:15.955Z,97157.81
2022-09-14T18:05:42.413Z,97163.16
2022-09-14T18:08:08.775Z,97170.47
2022-09-14T18:10:36.271Z,97166.25
2022-09-14T18:13:02.662Z,97164.44
2022-09-14T18:15:30.922Z,97168.00
2022-09-14T18:17:57.778Z,97167.19
2022-09-14T18:20:24.243Z,97168.34
2022-09-14T18:22:50.735Z,97167.41
2022-09-14T18:25:17.128Z,97158.88
2022-09-14T18:27:43.512Z,97155.56
2022-09-14T18:30:10.756Z,97167.88
2022-09-14T18:32:37.164Z,97173.69
2022-09-14T18:35:03.878Z,97183.53
2022-09-14T18:37:30.898Z,97186.22
2022-09-14T18:39:57.396Z,97189.66
2022-09-14T18:42:23.933Z,97189.44
2022-09-14T18:44:53.908Z,97194.75
2022-09-14T18:47:21.704Z,97196.56
2022-09-14T18:49:49.891Z,97198.44
2022-09-14T18:52:18.015Z,97201.97
2022-09-14T18:54:44.544Z,97202.69
2022-09-14T18:57:10.985Z,97201.66
2022-09-14T18:59:37.488Z,97207.19
2022-09-14T19:02:04.286Z,97211.47
2022-09-14T19:04:30.783Z,97208.97
2022-09-14T19:06:57.185Z,97213.34
2022-09-14T19:09:23.736Z,97204.81
2022-09-14T19:11:50.135Z,97204.81
2022-09-14T19:14:17.447Z,97205.16
2022-09-14T19:16:43.857Z,97208.59
2022-09-14T19:19:13.017Z,97191.19
2022-09-14T19:21:39.474Z,97186.09
2022-09-14T19:24:13.024Z,97185.13
2022-09-14T19:26:45.724Z,97191.31
2022-09-14T19:29:14.236Z,97183.63
2022-09-14T19:31:43.354Z,97182.75
2022-09-14T19:34:10.857Z,97190.59
2022-09-14T19:36:37.326Z,97182.06
2022-09-14T19:39:04.661Z,97189.19
2022-09-14T19:41:32.880Z,97182.06
2022-09-14T19:44:00.491Z,97193.31
2022-09-14T19:46:27.413Z,97205.75
2022-09-14T19:48:54.248Z,97204.06
2022-09-14T19:51:26.301Z,97204.31
2022-09-14T19:53:54.844Z,97208.06
2022-09-14T19:56:30.350Z,97206.63
2022-09-14T19:58:59.004Z,97205.00
2022-09-14T20:01:26.928Z,97212.81
2022-09-14T20:03:53.827Z,97211.97
2022-09-14T20:06:29.574Z,97208.44
2022-09-14T20:08:58.699Z,97212.59
2022-09-14T20:11:27.355Z,97215.19
2022-09-14T20:13:55.456Z,97206.44
2022-09-14T20:16:23.360Z,97209.75
2022-09-14T20:18:50.805Z,97215.06
2022-09-14T20:21:20.191Z,97205.47
2022-09-14T20:24:11.448Z,97194.81
2022-09-14T20:26:33.708Z,97201.69
2022-09-14T20:29:01.234Z,97201.00
2022-09-14T20:31:29.168Z,97196.94
2022-09-14T20:33:57.175Z,97189.13
2022-09-14T20:36:25.247Z,97176.00
2022-09-14T20:38:54.188Z,97189.13
2022-09-14T20:41:22.935Z,97179.88
2022-09-14T20:43:49.332Z,97179.19
2022-09-14T20:46:22.869Z,97173.13
2022-09-14T20:48:50.567Z,97178.44
2022-09-14T20:51:20.611Z,97180.69
2022-09-14T20:53:48.101Z,97192.16
2022-09-14T20:56:19.210Z,97202.94
2022-09-14T20:58:46.417Z,97191.78
2022-09-14T21:01:18.368Z,97193.78
2022-09-14T21:03:50.093Z,97185.84
2022-09-14T21:06:24.785Z,97182.44
2022-09-14T21:08:52.962Z,97186.78
2022-09-14T21:11:22.580Z,97189.50
2022-09-14T21:13:50.268Z,97180.75
2022-09-14T21:16:25.708Z,97173.88
2022-09-14T21:18:58.033Z,97172.03
2022-09-14T21:21:25.553Z,97168.09
2022-09-14T21:23:53.962Z,97162.66
2022-09-14T21:26:20.400Z,97172.03
2022-09-14T21:28:47.120Z,97166.09
2022-09-14T21:31:20.991Z,97164.63
2022-09-14T21:33:51.646Z,97168.31
2022-09-14T21:36:24.424Z,97183.09
2022-09-14T21:38:56.211Z,97179.06
2022-09-14T21:41:24.806Z,97181.75
2022-09-14T21:43:52.101Z,97180.94
2022-09-14T21:46:19.370Z,97174.81
2022-09-14T21:48:46.016Z,97170.19
2022-09-14T21:51:21.801Z,97167.59
2022-09-14T21:53:56.967Z,97170.94
2022-09-14T21:56:27.815Z,97176.25
2022-09-14T21:58:56.679Z,97180.50
2022-09-14T22:01:24.450Z,97174.34
2022-09-14T22:03:52.388Z,97175.06
2022-09-14T22:06:21.166Z,97194.13
2022-09-14T22:08:49.232Z,97190.78
2022-09-14T22:11:23.756Z,97191.88
2022-09-14T22:13:58.680Z,97192.09
2022-09-14T22:16:26.450Z,97176.25
2022-09-14T22:18:55.865Z,97176.47
2022-09-14T22:21:24.416Z,97180.25
2022-09-14T22:23:53.301Z,97188.03
2022-09-14T22:26:20.646Z,97193.34
2022-09-14T22:28:49.101Z,97197.81
2022-09-14T22:31:17.295Z,97186.69
2022-09-14T22:33:44.578Z,97185.88
2022-09-14T22:36:11.753Z,97187.72
2022-09-14T22:38:41.042Z,97187.03
2022-09-14T22:41:11.284Z,97196.47
2022-09-14T22:43:38.503Z,97207.97
2022-09-14T22:46:06.566Z,97220.13
2022-09-14T22:48:33.451Z,97220.97
2022-09-14T22:51:01.079Z,97215.13
2022-09-14T22:53:28.828Z,97216.28
2022-09-14T22:55:55.878Z,97208.38
2022-09-14T22:58:26.516Z,97218.06
2022-09-14T23:00:53.563Z,97210.25
2022-09-14T23:03:20.710Z,97218.88
2022-09-14T23:05:51.910Z,97221.50
2022-09-14T23:08:19.318Z,97221.50
2022-09-14T23:10:48.006Z,97215.34
2022-09-14T23:13:15.868Z,97224.00
2022-09-14T23:15:42.721Z,97226.69
2022-09-14T23:18:10.005Z,97224.00
2022-09-14T23:20:37.803Z,97210.97
2022-09-14T23:23:04.635Z,97205.88
2022-09-14T23:25:33.573Z,97209.56
2022-09-14T23:27:59.999Z,97213.91
2022-09-14T23:30:26.483Z,97212.28
2022-09-14T23:32:52.988Z,97216.72
2022-09-14T23:35:20.050Z,97214.13
2022-09-14T23:37:46.799Z,97216.72
2022-09-14T23:40:13.340Z,97210.81
2022-09-14T23:42:39.813Z,97211.75
2022-09-14T23:45:07.032Z,97208.44
2022-09-14T23:47:33.527Z,97208.66
2022-09-14T23:49:59.962Z,97210.53
2022-09-14T23:52:26.795Z,97216.59
2022-09-14T23:54:53.995Z,97211.47
2022-09-14T23:57:20.483Z,97209.81
2022-09-14T23:59:46.904Z,97202.22
